createdAt,value
2023-03-01T00:00:19.629Z,-0.12
2023-03-01T00:02:45.922Z,-0.10
2023-03-01T00:05:12.227Z,-0.07
2023-03-01T00:07:38.547Z,-0.07
2023-03-01T00:10:06.853Z,-0.09
2023-03-01T00:12:33.142Z,-0.11
2023-03-01T00:14:59.424Z,-0.10
2023-03-01T00:17:25.736Z,-0.11
2023-03-01T00:19:52.085Z,-0.16
2023-03-01T00:22:18.432Z,-0.19
2023-03-01T00:24:44.827Z,-0.23
2023-03-01T00:27:12.470Z,-0.23
2023-03-01T00:29:38.795Z,-0.27
2023-03-01T00:32:05.345Z,-0.28
2023-03-01T00:34:31.679Z,-0.32
2023-03-01T00:36:57.964Z,-0.31
2023-03-01T00:39:24.303Z,-0.26
2023-03-01T00:41:50.618Z,-0.23
2023-03-01T00:44:18.285Z,-0.29
2023-03-01T00:46:44.608Z,-0.27
2023-03-01T00:49:10.907Z,-0.31
2023-03-01T00:51:37.220Z,-0.35
2023-03-01T00:54:03.854Z,-0.31
2023-03-01T00:56:31.039Z,-0.39
2023-03-01T00:58:57.645Z,-0.38
2023-03-01T01:01:26.224Z,-0.39
2023-03-01T01:03:53.402Z,-0.39
2023-03-01T01:06:20.370Z,-0.44
2023-03-01T01:08:47.077Z,-0.50
2023-03-01T01:11:13.693Z,-0.51
2023-03-01T01:13:40.350Z,-0.53
2023-03-01T01:16:07.172Z,-0.53
2023-03-01T01:18:34.880Z,-0.55
2023-03-01T01:21:04.174Z,-0.62
2023-03-01T01:23:30.517Z,-0.55
2023-03-01T01:25:56.875Z,-0.55
2023-03-01T01:28:23.210Z,-0.59
2023-03-01T01:30:49.559Z,-0.61
2023-03-01T01:33:15.939Z,-0.66
2023-03-01T01:35:45.731Z,-0.67
2023-03-01T01:38:12.062Z,-0.70
2023-03-01T01:40:43.536Z,-0.72
2023-03-01T01:43:13.355Z,-0.73
2023-03-01T01:45:40.021Z,-0.75
2023-03-01T01:48:11.469Z,-0.71
2023-03-01T01:50:39.594Z,-0.76
2023-03-01T01:53:10.029Z,-0.79
2023-03-01T01:55:36.891Z,-0.80
2023-03-01T01:58:04.910Z,-0.79
2023-03-01T02:00:31.480Z,-0.83
2023-03-01T02:02:59.706Z,-0.87
2023-03-01T02:05:29.573Z,-0.91
2023-03-01T02:07:56.962Z,-0.90
2023-03-01T02:10:25.425Z,-0.93
2023-03-01T02:12:52.777Z,-0.89
2023-03-01T02:15:19.146Z,-0.90
2023-03-01T02:17:45.784Z,-0.94
2023-03-01T02:20:18.435Z,-1.00
2023-03-01T02:22:45.718Z,-1.00
2023-03-01T02:25:15.726Z,-0.95
2023-03-01T02:27:49.558Z,-0.93
2023-03-01T02:30:17.829Z,-0.96
2023-03-01T02:32:44.389Z,-0.98
2023-03-01T02:35:12.766Z,-0.99
2023-03-01T02:37:39.867Z,-1.06
2023-03-01T02:40:08.982Z,-1.12
2023-03-01T02:42:37.708Z,-1.13
2023-03-01T02:45:04.433Z,-1.17
2023-03-01T02:47:32.086Z,-1.25
2023-03-01T02:49:58.388Z,-1.27
2023-03-01T02:52:33.635Z,-1.26
2023-03-01T02:55:01.846Z,-1.32
2023-03-01T02:57:29.072Z,-1.30
2023-03-01T02:59:55.785Z,-1.31
2023-03-01T03:02:23.130Z,-1.34
2023-03-01T03:04:50.780Z,-1.33
2023-03-01T03:07:17.124Z,-1.28
2023-03-01T03:09:43.471Z,-1.29
2023-03-01T03:12:09.859Z,-1.30
2023-03-01T03:14:36.183Z,-1.32
2023-03-01T03:17:02.512Z,-1.34
2023-03-01T03:19:28.886Z,-1.35
2023-03-01T03:21:56.675Z,-1.26
2023-03-01T03:24:22.991Z,-1.28
2023-03-01T03:26:49.287Z,-1.32
2023-03-01T03:29:15.623Z,-1.35
2023-03-01T03:31:41.987Z,-1.36
2023-03-01T03:34:08.329Z,-1.35
2023-03-01T03:36:34.684Z,-1.34
2023-03-01T03:39:02.351Z,-1.33
2023-03-01T03:41:28.657Z,-1.36
2023-03-01T03:43:54.981Z,-1.43
2023-03-01T03:46:21.294Z,-1.49
2023-03-01T03:48:47.606Z,-1.52
2023-03-01T03:51:14.928Z,-1.55
2023-03-01T03:53:41.794Z,-1.52
2023-03-01T03:56:09.808Z,-1.52
2023-03-01T03:58:36.132Z,-1.48
2023-03-01T04:01:02.672Z,-1.52
2023-03-01T04:03:29.927Z,-1.56
2023-03-01T04:05:57.957Z,-1.55
2023-03-01T04:08:24.660Z,-1.58
2023-03-01T04:10:52.115Z,-1.54
2023-03-01T04:13:20.797Z,-1.50
2023-03-01T04:15:47.460Z,-1.58
2023-03-01T04:18:14.808Z,-1.54
2023-03-01T04:20:41.357Z,-1.61
2023-03-01T04:23:09.026Z,-1.57
2023-03-01T04:25:35.359Z,-1.51
2023-03-01T04:28:01.682Z,-1.59
2023-03-01T04:30:29.359Z,-1.63
2023-03-01T04:32:55.690Z,-1.60
2023-03-01T04:35:22.019Z,-1.58
2023-03-01T04:37:48.302Z,-1.60
2023-03-01T04:40:14.674Z,-1.54
2023-03-01T04:42:40.985Z,-1.58
2023-03-01T04:45:07.764Z,-1.55
2023-03-01T04:47:35.434Z,-1.56
2023-03-01T04:50:01.740Z,-1.66
2023-03-01T04:52:28.017Z,-1.74
2023-03-01T04:54:54.352Z,-1.71
2023-03-01T04:57:20.663Z,-1.72
2023-03-01T04:59:47.003Z,-1.79
2023-03-01T05:02:13.318Z,-1.80
2023-03-01T05:04:41.069Z,-1.85
2023-03-01T05:07:07.419Z,-1.88
2023-03-01T05:09:33.831Z,-1.88
2023-03-01T05:12:00.181Z,-1.87
2023-03-01T05:14:26.489Z,-1.84
2023-03-01T05:16:52.793Z,-1.91
2023-03-01T05:19:19.105Z,-1.94
2023-03-01T05:21:46.773Z,-1.96
2023-03-01T05:24:13.064Z,-1.98
2023-03-01T05:26:39.507Z,-2.00
2023-03-01T05:29:05.890Z,-2.04
2023-03-01T05:31:32.308Z,-2.09
2023-03-01T05:33:58.705Z,-2.10
2023-03-01T05:36:25.069Z,-2.12
2023-03-01T05:38:52.747Z,-2.13
2023-03-01T05:41:19.080Z,-2.15
2023-03-01T05:43:45.386Z,-2.14
2023-03-01T05:46:11.755Z,-2.18
2023-03-01T05:48:38.103Z,-2.12
2023-03-01T05:51:04.582Z,-2.13
2023-03-01T05:53:30.938Z,-2.11
2023-03-01T05:55:58.581Z,-2.13
2023-03-01T05:58:24.895Z,-2.16
2023-03-01T06:00:52.053Z,-2.17
2023-03-01T06:03:19.760Z,-2.17
2023-03-01T06:05:46.361Z,-2.18
2023-03-01T06:08:12.991Z,-2.25
2023-03-01T06:10:39.611Z,-2.26
2023-03-01T06:13:07.271Z,-2.25
2023-03-01T06:15:33.834Z,-2.24
2023-03-01T06:18:00.567Z,-2.25
2023-03-01T06:20:28.400Z,-2.26
2023-03-01T06:22:54.695Z,-2.21
2023-03-01T06:25:22.915Z,-2.20
2023-03-01T06:27:49.861Z,-2.24
2023-03-01T06:30:18.472Z,-2.23
2023-03-01T06:32:44.829Z,-2.25
2023-03-01T06:35:12.042Z,-2.26
2023-03-01T06:37:38.427Z,-2.29
2023-03-01T06:40:05.158Z,-2.27
2023-03-01T06:42:31.441Z,-2.27
2023-03-01T06:44:57.760Z,-2.25
2023-03-01T06:47:25.462Z,-2.27
2023-03-01T06:49:51.800Z,-2.22
2023-03-01T06:52:18.131Z,-2.17
2023-03-01T06:54:44.433Z,-2.14
2023-03-01T06:57:10.759Z,-2.13
2023-03-01T06:59:37.066Z,-2.09
2023-03-01T07:02:03.463Z,-2.06
2023-03-01T07:04:31.111Z,-2.08
2023-03-01T07:06:57.737Z,-2.01
2023-03-01T07:09:24.195Z,-1.96
2023-03-01T07:11:50.592Z,-1.93
2023-03-01T07:14:17.210Z,-1.88
2023-03-01T07:16:43.548Z,-1.84
2023-03-01T07:19:09.872Z,-1.81
2023-03-01T07:21:37.541Z,-1.74
2023-03-01T07:24:04.006Z,-1.66
2023-03-01T07:26:30.678Z,-1.60
2023-03-01T07:28:59.407Z,-1.54
2023-03-01T07:31:25.785Z,-1.49
2023-03-01T07:33:52.095Z,-1.42
2023-03-01T07:36:18.409Z,-1.34
2023-03-01T07:38:46.170Z,-1.25
2023-03-01T07:41:12.491Z,-1.23
2023-03-01T07:43:38.803Z,-1.14
2023-03-01T07:46:05.410Z,-1.09
2023-03-01T07:48:32.358Z,-1.03
2023-03-01T07:50:59.354Z,-0.99
2023-03-01T07:53:25.618Z,-0.93
2023-03-01T07:56:01.928Z,-0.86
2023-03-01T07:58:28.240Z,-0.80
2023-03-01T08:00:54.539Z,-0.74
2023-03-01T08:03:20.822Z,-0.66
2023-03-01T08:05:47.151Z,-0.61
2023-03-01T08:08:13.501Z,-0.54
2023-03-01T08:10:39.802Z,-0.47
2023-03-01T08:13:07.511Z,-0.40
2023-03-01T08:15:33.840Z,-0.30
2023-03-01T08:18:00.174Z,-0.24
2023-03-01T08:20:26.525Z,-0.16
2023-03-01T08:22:52.857Z,-0.14
2023-03-01T08:25:19.186Z,-0.10
2023-03-01T08:27:45.482Z,0.03
2023-03-01T08:30:13.869Z,0.11
2023-03-01T08:32:40.687Z,0.18
2023-03-01T08:35:07.538Z,0.23
2023-03-01T08:37:33.865Z,0.36
2023-03-01T08:40:00.308Z,0.46
2023-03-01T08:42:26.793Z,0.54
2023-03-01T08:44:53.098Z,0.67
2023-03-01T08:47:20.795Z,0.81
2023-03-01T08:49:47.098Z,0.89
2023-03-01T08:52:13.435Z,0.94
2023-03-01T08:54:39.759Z,1.00
2023-03-01T08:57:06.158Z,1.12
2023-03-01T08:59:32.501Z,1.24
2023-03-01T09:01:58.846Z,1.37
2023-03-01T09:04:26.579Z,1.56
2023-03-01T09:06:52.916Z,1.68
2023-03-01T09:09:19.279Z,1.78
2023-03-01T09:11:46.051Z,1.75
2023-03-01T09:14:12.456Z,1.82
2023-03-01T09:16:38.784Z,1.90
2023-03-01T09:19:05.212Z,2.04
2023-03-01T09:21:40.221Z,2.26
2023-03-01T09:24:07.967Z,2.34
2023-03-01T09:26:34.406Z,2.34
2023-03-01T09:29:00.722Z,2.45
2023-03-01T09:31:27.154Z,2.50
2023-03-01T09:33:54.245Z,2.57
2023-03-01T09:36:21.819Z,2.73
2023-03-01T09:38:49.883Z,2.59
2023-03-01T09:41:24.031Z,2.70
2023-03-01T09:43:51.842Z,2.91
2023-03-01T09:46:18.360Z,3.01
2023-03-01T09:48:47.021Z,3.06
2023-03-01T09:51:16.920Z,3.12
2023-03-01T09:53:43.286Z,3.25
2023-03-01T09:56:15.985Z,3.38
2023-03-01T09:58:47.602Z,3.48
2023-03-01T10:01:23.593Z,3.58
2023-03-01T10:03:59.844Z,3.65
2023-03-01T10:06:34.958Z,3.65
2023-03-01T10:09:03.962Z,3.74
2023-03-01T10:11:33.425Z,3.89
2023-03-01T10:14:02.478Z,3.84
2023-03-01T10:16:33.569Z,3.92
2023-03-01T10:19:01.276Z,3.96
2023-03-01T10:21:28.444Z,4.05
2023-03-01T10:23:55.496Z,4.11
2023-03-01T10:26:33.208Z,4.17
2023-03-01T10:29:02.387Z,4.47
2023-03-01T10:31:37.122Z,4.65
2023-03-01T10:34:03.816Z,4.69
2023-03-01T10:36:33.680Z,4.75
2023-03-01T10:39:00.006Z,4.64
2023-03-01T10:41:27.437Z,4.72
2023-03-01T10:43:54.826Z,4.79
2023-03-01T10:46:27.601Z,4.69
2023-03-01T10:49:18.085Z,4.79
2023-03-01T10:51:45.797Z,4.90
2023-03-01T10:54:17.253Z,5.11
2023-03-01T10:56:51.013Z,5.23
2023-03-01T10:59:23.400Z,5.22
2023-03-01T11:02:05.148Z,4.98
2023-03-01T11:04:33.307Z,5.06
2023-03-01T11:07:00.921Z,4.97
2023-03-01T11:09:31.437Z,5.08
2023-03-01T11:12:00.517Z,5.06
2023-03-01T11:14:28.539Z,5.24
2023-03-01T11:17:03.851Z,5.15
2023-03-01T11:19:30.246Z,5.23
2023-03-01T11:22:00.287Z,5.32
2023-03-01T11:24:30.285Z,5.35
2023-03-01T11:26:57.094Z,5.33
2023-03-01T11:29:29.730Z,5.30
2023-03-01T11:32:02.261Z,5.32
2023-03-01T11:34:37.063Z,5.31
2023-03-01T11:37:11.474Z,5.28
2023-03-01T11:39:40.056Z,5.28
2023-03-01T11:42:18.601Z,5.35
2023-03-01T11:44:47.300Z,5.34
2023-03-01T11:47:22.450Z,5.24
2023-03-01T11:49:56.930Z,5.27
2023-03-01T11:52:30.154Z,5.28
2023-03-01T11:55:03.417Z,5.22
2023-03-01T11:57:44.080Z,5.28
2023-03-01T12:00:26.303Z,5.16
2023-03-01T12:03:05.457Z,5.21
2023-03-01T12:05:44.903Z,5.29
2023-03-01T12:08:15.980Z,5.36
2023-03-01T12:10:48.467Z,5.40
2023-03-01T12:13:24.575Z,5.43
2023-03-01T12:16:08.246Z,5.53
2023-03-01T12:18:52.317Z,5.57
2023-03-01T12:21:24.576Z,5.54
2023-03-01T12:24:09.157Z,5.72
2023-03-01T12:26:37.192Z,5.80
2023-03-01T12:29:11.995Z,5.77
2023-03-01T12:31:48.148Z,5.79
2023-03-01T12:34:27.037Z,5.92
2023-03-01T12:37:00.475Z,6.07
2023-03-01T12:39:36.390Z,6.18
2023-03-01T12:42:05.748Z,6.29
2023-03-01T12:44:40.834Z,6.24
2023-03-01T12:47:15.120Z,6.30
2023-03-01T12:49:43.033Z,6.20
2023-03-01T12:52:14.907Z,6.21
2023-03-01T12:54:42.196Z,6.11
2023-03-01T12:57:13.265Z,6.19
2023-03-01T12:59:41.603Z,6.10
2023-03-01T13:02:14.725Z,6.10
2023-03-01T13:04:47.893Z,6.12
2023-03-01T13:07:20.320Z,6.14
2023-03-01T13:09:51.786Z,5.92
2023-03-01T13:12:36.796Z,5.98
2023-03-01T13:15:03.552Z,5.96
2023-03-01T13:17:31.345Z,6.08
2023-03-01T13:19:58.729Z,5.99
2023-03-01T13:22:30.562Z,5.95
2023-03-01T13:25:12.314Z,5.97
2023-03-01T13:27:38.637Z,5.83
2023-03-01T13:30:05.387Z,6.02
2023-03-01T13:32:47.990Z,5.98
2023-03-01T13:35:41.279Z,5.97
2023-03-01T13:38:22.453Z,6.07
2023-03-01T13:40:59.556Z,6.04
2023-03-01T13:43:30.227Z,5.97
2023-03-01T13:45:56.652Z,5.93
2023-03-01T13:48:24.831Z,5.90
2023-03-01T13:50:52.144Z,5.93
2023-03-01T13:53:19.895Z,5.92
2023-03-01T13:55:47.914Z,6.03
2023-03-01T13:58:19.495Z,5.96
2023-03-01T14:00:45.831Z,6.00
2023-03-01T14:03:13.770Z,5.92
2023-03-01T14:05:41.020Z,5.95
2023-03-01T14:08:19.945Z,6.02
2023-03-01T14:10:54.428Z,5.92
2023-03-01T14:13:29.174Z,5.91
2023-03-01T14:16:05.752Z,5.92
2023-03-01T14:18:36.702Z,5.96
2023-03-01T14:21:08.124Z,6.03
2023-03-01T14:23:34.488Z,6.11
2023-03-01T14:26:00.820Z,6.08
2023-03-01T14:28:29.431Z,6.08
2023-03-01T14:30:57.699Z,5.98
2023-03-01T14:33:25.158Z,6.01
2023-03-01T14:35:58.632Z,5.94
2023-03-01T14:38:29.574Z,5.93
2023-03-01T14:40:57.964Z,5.98
2023-03-01T14:43:25.413Z,6.00
2023-03-01T14:45:53.218Z,6.01
2023-03-01T14:48:19.841Z,6.07
2023-03-01T14:50:46.478Z,6.10
2023-03-01T14:53:17.410Z,6.10
2023-03-01T14:55:46.714Z,6.02
2023-03-01T14:58:14.040Z,6.00
2023-03-01T15:00:43.323Z,6.07
2023-03-01T15:03:14.219Z,6.13
2023-03-01T15:05:42.478Z,6.18
2023-03-01T15:08:17.634Z,6.25
2023-03-01T15:10:56.228Z,6.38
2023-03-01T15:13:24.080Z,6.48
2023-03-01T15:15:51.208Z,6.80
2023-03-01T15:18:20.169Z,7.29
2023-03-01T15:20:47.517Z,7.65
2023-03-01T15:23:18.991Z,7.52
2023-03-01T15:25:45.555Z,7.04
2023-03-01T15:28:18.407Z,6.79
2023-03-01T15:30:44.746Z,6.69
2023-03-01T15:33:17.499Z,7.07
2023-03-01T15:35:46.410Z,7.81
2023-03-01T15:38:29.666Z,8.10
2023-03-01T15:40:56.925Z,8.57
2023-03-01T15:43:39.518Z,8.75
2023-03-01T15:46:06.007Z,8.97
2023-03-01T15:48:32.420Z,8.90
2023-03-01T15:51:00.435Z,8.29
2023-03-01T15:53:27.618Z,8.24
2023-03-01T15:55:53.947Z,8.64
2023-03-01T15:58:20.822Z,8.59
2023-03-01T16:00:59.866Z,8.76
2023-03-01T16:03:26.917Z,9.04
2023-03-01T16:05:53.194Z,9.30
2023-03-01T16:08:20.941Z,9.17
2023-03-01T16:10:47.293Z,9.18
2023-03-01T16:13:14.725Z,9.37
2023-03-01T16:15:41.290Z,9.37
2023-03-01T16:18:07.995Z,9.39
2023-03-01T16:20:34.546Z,8.95
2023-03-01T16:23:01.717Z,8.92
2023-03-01T16:25:30.693Z,8.94
2023-03-01T16:27:57.081Z,8.86
2023-03-01T16:30:23.662Z,8.70
2023-03-01T16:32:51.025Z,8.50
2023-03-01T16:35:18.280Z,8.16
2023-03-01T16:37:44.717Z,7.77
2023-03-01T16:40:17.020Z,7.12
2023-03-01T16:42:44.673Z,7.27
2023-03-01T16:45:22.892Z,7.27
2023-03-01T16:47:50.025Z,7.19
2023-03-01T16:50:16.350Z,6.92
2023-03-01T16:52:42.691Z,6.57
2023-03-01T16:55:09.332Z,6.18
2023-03-01T16:57:36.177Z,6.02
2023-03-01T17:00:04.285Z,5.78
2023-03-01T17:02:30.595Z,5.61
2023-03-01T17:04:56.903Z,5.43
2023-03-01T17:07:23.213Z,5.28
2023-03-01T17:09:49.586Z,5.16
2023-03-01T17:12:16.592Z,5.01
2023-03-01T17:14:43.519Z,4.93
2023-03-01T17:17:11.442Z,4.78
2023-03-01T17:19:38.194Z,4.67
2023-03-01T17:22:04.541Z,4.59
2023-03-01T17:24:32.688Z,4.49
2023-03-01T17:26:59.037Z,4.48
2023-03-01T17:29:25.383Z,4.43
2023-03-01T17:31:51.856Z,4.37
2023-03-01T17:34:19.644Z,4.31
2023-03-01T17:36:45.944Z,4.23
2023-03-01T17:39:12.250Z,4.13
2023-03-01T17:41:38.568Z,4.10
2023-03-01T17:44:04.939Z,4.03
2023-03-01T17:46:31.264Z,3.98
2023-03-01T17:48:59.325Z,3.88
2023-03-01T17:51:26.967Z,3.94
2023-03-01T17:53:53.290Z,3.87
2023-03-01T17:56:19.585Z,3.83
2023-03-01T17:58:45.903Z,3.79
2023-03-01T18:01:13.141Z,3.74
2023-03-01T18:03:39.752Z,3.68
2023-03-01T18:06:10.835Z,3.63
2023-03-01T18:08:38.481Z,3.61
2023-03-01T18:11:04.830Z,3.56
2023-03-01T18:13:31.152Z,3.52
2023-03-01T18:15:57.461Z,3.49
2023-03-01T18:18:23.759Z,3.43
2023-03-01T18:20:55.105Z,3.40
2023-03-01T18:23:21.419Z,3.36
2023-03-01T18:25:49.279Z,3.35
2023-03-01T18:28:15.623Z,3.28
2023-03-01T18:30:41.994Z,3.25
2023-03-01T18:33:08.319Z,3.23
2023-03-01T18:35:36.089Z,3.17
2023-03-01T18:38:02.475Z,3.16
2023-03-01T18:40:29.049Z,3.13
2023-03-01T18:42:56.758Z,3.06
2023-03-01T18:45:23.058Z,3.06
2023-03-01T18:47:49.424Z,3.03
2023-03-01T18:50:15.837Z,2.99
2023-03-01T18:52:42.127Z,2.98
2023-03-01T18:55:08.933Z,2.92
2023-03-01T18:57:35.233Z,2.93
2023-03-01T19:00:03.211Z,2.90
2023-03-01T19:02:29.558Z,2.91
2023-03-01T19:04:55.852Z,2.84
2023-03-01T19:07:22.405Z,2.82
2023-03-01T19:09:54.242Z,2.75
2023-03-01T19:12:20.590Z,2.72
2023-03-01T19:14:46.957Z,2.68
2023-03-01T19:17:14.643Z,2.61
2023-03-01T19:19:40.978Z,2.59
2023-03-01T19:22:07.310Z,2.52
2023-03-01T19:24:33.624Z,2.55
2023-03-01T19:26:59.947Z,2.54
2023-03-01T19:29:27.165Z,2.48
2023-03-01T19:31:53.525Z,2.48
2023-03-01T19:34:21.271Z,2.48
2023-03-01T19:36:47.603Z,2.46
2023-03-01T19:39:14.277Z,2.49
2023-03-01T19:41:40.760Z,2.43
2023-03-01T19:44:07.618Z,2.43
2023-03-01T19:46:34.580Z,2.39
2023-03-01T19:49:01.208Z,2.36
2023-03-01T19:51:28.905Z,2.34
2023-03-01T19:53:55.879Z,2.31
2023-03-01T19:56:22.409Z,2.25
2023-03-01T19:58:48.790Z,2.21
2023-03-01T20:01:16.066Z,2.18
2023-03-01T20:03:42.736Z,2.16
2023-03-01T20:06:10.390Z,2.21
2023-03-01T20:08:38.358Z,2.20
2023-03-01T20:11:05.970Z,2.17
2023-03-01T20:13:32.314Z,2.12
2023-03-01T20:15:58.654Z,2.08
2023-03-01T20:18:25.250Z,2.06
2023-03-01T20:20:51.670Z,2.03
2023-03-01T20:23:18.018Z,1.98
2023-03-01T20:25:48.060Z,1.99
2023-03-01T20:28:14.496Z,1.97
2023-03-01T20:30:40.970Z,1.98
2023-03-01T20:33:07.998Z,1.96
2023-03-01T20:35:34.403Z,1.90
2023-03-01T20:38:00.895Z,1.89
2023-03-01T20:40:28.353Z,1.92
2023-03-01T20:42:56.059Z,1.88
2023-03-01T20:45:22.957Z,1.90
2023-03-01T20:47:49.419Z,1.90
2023-03-01T20:50:15.930Z,1.89
2023-03-01T20:52:47.424Z,1.83
2023-03-01T20:55:14.478Z,1.85
2023-03-01T20:57:40.824Z,1.77
2023-03-01T21:00:09.675Z,1.73
2023-03-01T21:02:38.351Z,1.75
2023-03-01T21:05:05.129Z,1.71
2023-03-01T21:07:31.464Z,1.65
2023-03-01T21:09:57.822Z,1.69
2023-03-01T21:12:24.210Z,1.66
2023-03-01T21:17:17.605Z,1.61
2023-03-01T21:19:45.165Z,1.62
2023-03-01T21:22:12.645Z,1.57
2023-03-01T21:24:39.238Z,1.54
2023-03-01T21:27:05.539Z,1.56
2023-03-01T21:29:32.285Z,1.54
2023-03-01T21:31:58.805Z,1.48
2023-03-01T21:34:26.506Z,1.48
2023-03-01T21:36:52.795Z,1.46
2023-03-01T21:39:19.127Z,1.46
2023-03-01T21:41:45.407Z,1.47
2023-03-01T21:44:11.697Z,1.50
2023-03-01T21:46:39.347Z,1.47
2023-03-01T21:49:06.711Z,1.43
2023-03-01T21:51:34.852Z,1.41
2023-03-01T21:54:01.274Z,1.38
2023-03-01T21:56:28.622Z,1.33
2023-03-01T21:58:55.010Z,1.37
2023-03-01T22:01:23.183Z,1.34
2023-03-01T22:03:49.613Z,1.28
2023-03-01T22:06:18.206Z,1.25
2023-03-01T22:08:48.166Z,1.22
2023-03-01T22:11:14.877Z,1.22
2023-03-01T22:13:41.272Z,1.18
2023-03-01T22:16:07.898Z,1.15
2023-03-01T22:18:34.304Z,1.13
2023-03-01T22:21:03.542Z,1.14
2023-03-01T22:23:29.886Z,1.12
2023-03-01T22:25:57.594Z,1.09
2023-03-01T22:28:23.934Z,1.08
2023-03-01T22:30:50.278Z,1.05
2023-03-01T22:33:16.725Z,1.04
2023-03-01T22:35:43.482Z,1.05
2023-03-01T22:38:09.955Z,1.06
2023-03-01T22:40:37.103Z,1.02
2023-03-01T22:43:05.817Z,1.05
2023-03-01T22:45:32.448Z,1.00
2023-03-01T22:47:59.061Z,0.99
2023-03-01T22:50:25.499Z,1.00
2023-03-01T22:52:51.853Z,1.00
2023-03-01T22:55:18.367Z,1.00
2023-03-01T22:57:44.760Z,0.97
2023-03-01T23:00:13.184Z,0.95
2023-03-01T23:02:39.848Z,0.98
2023-03-01T23:05:06.470Z,0.97
2023-03-01T23:07:32.830Z,0.97
2023-03-01T23:09:59.186Z,1.02
2023-03-01T23:12:25.613Z,0.99
2023-03-01T23:14:52.561Z,1.00
2023-03-01T23:17:20.629Z,0.99
2023-03-01T23:19:47.099Z,1.00
2023-03-01T23:22:13.438Z,0.99
2023-03-01T23:24:39.833Z,0.98
2023-03-01T23:27:06.268Z,0.92
2023-03-01T23:29:32.673Z,0.89
2023-03-01T23:31:59.233Z,0.83
2023-03-01T23:34:27.497Z,0.88
2023-03-01T23:36:54.300Z,0.85
2023-03-01T23:39:21.561Z,0.86
2023-03-01T23:41:48.064Z,0.82
2023-03-01T23:44:15.388Z,0.82
2023-03-01T23:46:41.880Z,0.86
2023-03-01T23:49:10.466Z,0.84
2023-03-01T23:51:39.543Z,0.83
2023-03-01T23:54:06.037Z,0.78
2023-03-01T23:56:35.336Z,0.76
2023-03-01T23:59:02.470Z,0.77
